Latest Weather Observations for Hopetoun North

IDW60801

Issued at 11:03 pm WST Monday 25 January 2021 (issued every 10 minutes, with the page automatically refreshed every 10 minutes)

About weather observations | Map of weather stations | Latest weather observations for WA | Other Formats
Station Details ID: 009961 Name: HOPETOUN NORTH Lat: -33.93 Lon: 120.13 Height: 26.0 m
Data from the previous 72 hours. | See also: Recent months at Hopetoun North
Date/Time
WST
Temp
°C
App
Temp
°C
Dew
Point
°C
Rel
Hum
%
Delta-T
°C
Wind Press
QNH
hPa
Press
MSL
hPa
Rain since
9am
mm
Dir  Spd
km/h
Gust
km/h
Spd
kts
Gust
kts
25/11:00pm 17.6 - - - - ESE 13 20 7 11 1010.7 1010.7 0.0
25/10:30pm 17.7 - - - - ESE 13 19 7 10 1010.9 1010.9 0.0
25/10:00pm 17.6 - - - - ESE 13 20 7 11 1011.1 1011.1 0.0
25/09:30pm 17.6 - - - - ESE 13 22 7 12 1011.2 1011.2 0.0
25/09:00pm 17.7 - - - - ESE 15 24 8 13 1011.2 1011.2 0.0
25/08:30pm 17.7 - - - - ESE 15 22 8 12 1011.1 1011.1 0.0
25/08:00pm 17.7 - - - - ESE 13 20 7 11 1010.8 1010.8 0.0
25/07:30pm 17.9 - - - - SE 15 24 8 13 1010.8 1010.8 0.0
25/07:00pm 18.2 - - - - ESE 17 24 9 13 1010.8 1010.8 0.0
25/06:30pm 18.6 - - - - SE 19 30 10 16 1010.4 1010.3 0.0
25/06:00pm 19.0 - - - - SE 19 28 10 15 1010.2 1010.1 0.0
25/05:30pm 19.3 - - - - SE 19 28 10 15 1010.1 1010.0 0.0
25/05:00pm 20.0 - - - - SE 22 32 12 17 1009.7 1009.6 0.0
25/04:30pm 20.9 - - - - SE 24 33 13 18 1009.3 1009.2 0.0
25/04:00pm 20.9 - - - - SE 26 35 14 19 1009.3 1009.2 0.0
25/03:30pm 21.0 - - - - SE 24 33 13 18 1009.1 1009.0 0.0
25/03:00pm 21.0 - - - - SSE 26 35 14 19 1009.1 1009.0 0.0
25/02:30pm 22.0 - - - - SE 26 35 14 19 1009.1 1009.0 0.0
25/02:00pm 22.5 - - - - SSE 20 30 11 16 1009.0 1008.9 0.0
25/01:30pm 22.3 - - - - SSE 20 30 11 16 1009.1 1009.0 0.0
25/01:00pm 22.0 - - - - SSE 20 28 11 15 1009.1 1009.0 0.0
25/12:30pm 22.7 - - - - SSE 17 24 9 13 1009.4 1009.3 0.0
25/12:00pm 21.8 - - - - SSE 20 26 11 14 1009.5 1009.4 0.0
25/11:30am 22.4 - - - - S 17 24 9 13 1009.7 1009.6 0.0
25/11:00am 22.0 - - - - S 17 22 9 12 1009.8 1009.7 0.0
25/10:30am 22.1 - - - - SSW 15 22 8 12 1009.8 1009.7 0.0
25/10:00am 21.9 - - - - S 15 24 8 13 1009.8 1009.7 0.0
25/09:30am 22.1 - - - - S 15 24 8 13 1009.7 1009.6 0.0
25/09:00am 21.4 - - - - SSW 17 20 9 11 1009.5 1009.4 0.0
25/08:30am 21.2 - - - - SSW 17 22 9 12 1009.6 1009.5 0.0
25/08:00am 21.1 - - - - SSW 15 22 8 12 1009.8 1009.7 0.0
25/07:30am 20.6 - - - - SSW 17 22 9 12 1009.4 1009.3 0.0
25/07:00am 20.3 - - - - S 15 20 8 11 1009.3 1009.2 0.0
25/06:30am 19.3 - - - - SSW 13 19 7 10 1008.9 1008.8 0.0
25/06:00am 18.9 - - - - SSW 9 15 5 8 1008.6 1008.5 0.0
25/05:30am 18.5 - - - - SSW 13 17 7 9 1008.3 1008.2 0.0
25/05:00am 18.5 - - - - SSW 13 17 7 9 1007.9 1007.8 0.0
25/04:30am 18.5 - - - - SSW 13 19 7 10 1007.6 1007.5 0.0
25/04:00am 18.6 - - - - SSW 13 17 7 9 1007.5 1007.4 0.0
25/03:30am 18.7 - - - - SSW 11 15 6 8 1007.3 1007.2 0.0
25/03:00am 18.9 - - - - SSW 13 19 7 10 1007.1 1007.0 0.0
25/02:30am 19.1 - - - - SSW 15 19 8 10 1007.0 1006.9 0.0
25/02:00am 19.2 - - - - SSW 15 19 8 10 1006.9 1006.8 0.0
25/01:30am 19.2 - - - - SSW 15 20 8 11 1006.8 1006.7 0.0
25/01:00am 19.3 - - - - SSW 13 17 7 9 1006.9 1006.8 0.0
25/12:30am 19.2 - - - - SSW 13 17 7 9 1007.0 1006.9 0.0
25/12:00am 18.8 - - - - SSW 13 15 7 8 1007.1 1007.0 0.0
 
Date/Time
WST
Temp
°C
App
Temp
°C
Dew
Point
°C
Rel
Hum
%
Delta-T
°C
Wind Press
QNH
hPa
Press
MSL
hPa
Rain since
9am
mm
Dir  Spd
km/h
Gust
km/h
Spd
kts
Gust
kts
24/11:30pm 18.4 - - - - SSW 9 15 5 8 1007.2 1007.1 0.0
24/11:00pm 18.9 - - - - SSW 13 17 7 9 1007.3 1007.2 0.0
24/10:30pm 19.5 - - - - SSW 17 20 9 11 1007.3 1007.2 0.0
24/10:00pm 19.2 - - - - SSW 11 17 6 9 1007.5 1007.4 0.0
24/09:30pm 18.5 - - - - SSW 9 13 5 7 1007.3 1007.2 0.0
24/09:00pm 18.9 - - - - SSW 9 13 5 7 1007.1 1007.0 0.0
24/08:30pm 19.0 - - - - SSW 9 15 5 8 1006.9 1006.8 0.0
24/08:00pm 19.3 - - - - S 11 15 6 8 1006.5 1006.4 0.0
24/07:30pm 19.6 - - - - SSW 15 20 8 11 1006.4 1006.3 0.0
24/07:00pm 20.1 - - - - SSW 19 22 10 12 1006.1 1006.0 0.0
24/06:30pm 20.8 - - - - SSW 19 24 10 13 1005.8 1005.7 0.0
24/06:00pm 21.3 - - - - S 15 20 8 11 1005.4 1005.3 0.0
24/05:30pm 22.1 - - - - S 13 19 7 10 1005.1 1005.0 0.0
24/05:00pm 21.9 - - - - S 13 19 7 10 1004.8 1004.7 0.0
24/04:30pm 22.6 - - - - S 15 20 8 11 1004.7 1004.6 0.0
24/04:00pm 22.6 - - - - S 13 22 7 12 1004.6 1004.5 0.0
24/03:30pm 22.2 - - - - SSE 15 20 8 11 1004.6 1004.5 0.0
24/03:00pm 23.1 - - - - SSE 17 22 9 12 1004.5 1004.4 0.0
24/02:30pm 22.6 - - - - SSE 19 24 10 13 1004.5 1004.4 0.0
24/02:00pm 22.6 - - - - SSE 17 24 9 13 1004.7 1004.6 0.0
24/01:30pm 23.4 - - - - SSE 17 22 9 12 1004.6 1004.5 0.0
24/01:00pm 22.3 - - - - SSE 19 24 10 13 1004.9 1004.8 0.0
24/12:30pm 23.0 - - - - S 20 28 11 15 1004.9 1004.8 0.0
24/12:00pm 23.8 - - - - S 19 26 10 14 1004.9 1004.8 0.0
24/11:30am 22.8 - - - - S 19 24 10 13 1005.0 1004.9 0.0
24/11:00am 23.2 - - - - S 15 24 8 13 1005.0 1004.9 0.0
24/10:30am 22.4 - - - - SW 17 22 9 12 1005.0 1004.9 0.0
24/10:00am 22.2 - - - - SW 19 24 10 13 1005.0 1004.9 0.0
24/09:30am 21.7 - - - - SSW 15 28 8 15 1004.9 1004.8 0.0
24/09:00am 21.1 - - - - SW 13 19 7 10 1004.6 1004.5 0.0
24/08:30am 21.3 - - - - WSW 11 15 6 8 1004.8 1004.7 0.0
24/08:00am 20.6 - - - - SW 11 15 6 8 1004.9 1004.8 0.0
24/07:30am 20.0 - - - - SW 9 15 5 8 1004.9 1004.8 0.0
24/07:00am 19.6 - - - - WSW 11 15 6 8 1005.0 1004.9 0.0
24/06:30am 18.3 - - - - W 4 6 2 3 1004.7 1004.6 0.0
24/06:00am 16.4 - - - - W 4 6 2 3 1004.5 1004.4 0.0
24/05:30am 15.5 - - - - NW 6 6 3 3 1004.3 1004.2 0.0
24/05:00am 15.8 - - - - NW 6 7 3 4 1004.0 1003.9 0.0
24/04:30am 17.2 - - - - W 6 9 3 5 1003.7 1003.6 0.0
24/04:00am 17.5 - - - - SW 7 11 4 6 1003.3 1003.2 0.0
24/03:30am 17.8 - - - - SW 11 17 6 9 1003.3 1003.2 0.0
24/03:00am 18.0 - - - - SW 13 20 7 11 1003.2 1003.1 0.0
24/02:30am 18.2 - - - - SW 13 19 7 10 1003.1 1003.0 0.0
24/02:00am 18.3 - - - - SW 13 20 7 11 1003.1 1003.0 0.0
24/01:30am 18.3 - - - - SW 13 20 7 11 1003.1 1003.0 0.0
24/01:00am 18.6 - - - - SW 13 17 7 9 1003.1 1003.0 0.0
24/12:30am 18.4 - - - - SW 9 15 5 8 1003.4 1003.3 0.0
24/12:00am 18.6 - - - - SW 15 19 8 10 1003.3 1003.2 0.0
 
Date/Time
WST
Temp
°C
App
Temp
°C
Dew
Point
°C
Rel
Hum
%
Delta-T
°C
Wind Press
QNH
hPa
Press
MSL
hPa
Rain since
9am
mm
Dir  Spd
km/h
Gust
km/h
Spd
kts
Gust
kts
23/11:30pm 18.9 - - - - SW 13 20 7 11 1003.1 1003.0 0.0
23/11:00pm 18.9 - - - - SSW 15 22 8 12 1003.3 1003.2 0.0
23/10:30pm 19.0 - - - - SW 19 22 10 12 1003.5 1003.4 0.0
23/10:00pm 18.8 - - - - SSW 11 15 6 8 1003.8 1003.7 0.0
23/09:30pm 19.0 - - - - SSW 13 15 7 8 1003.9 1003.8 0.0
23/09:00pm 19.1 - - - - SSW 7 9 4 5 1004.0 1003.9 0.0
23/08:30pm 19.0 - - - - SSW 9 13 5 7 1003.4 1003.3 0.0
23/08:00pm 19.0 - - - - SSW 11 17 6 9 1002.9 1002.8 0.0
23/07:30pm 19.0 - - - - SSW 7 9 4 5 1002.5 1002.4 0.0
23/07:00pm 19.6 - - - - S 11 13 6 7 1002.4 1002.3 0.0
23/06:30pm 20.2 - - - - SSE 13 17 7 9 1002.1 1002.0 0.0
23/06:00pm 20.8 - - - - S 13 20 7 11 1002.3 1002.2 0.0
23/05:30pm 21.0 - - - - S 17 20 9 11 1002.0 1001.9 0.0
23/05:00pm 21.9 - - - - S 17 24 9 13 1001.3 1001.2 0.0
23/04:30pm 21.8 - - - - S 20 28 11 15 1001.3 1001.2 0.0
23/04:00pm 21.6 - - - - S 20 28 11 15 1001.2 1001.1 0.0
23/03:30pm 22.7 - - - - S 22 32 12 17 1000.5 1000.4 0.0
23/03:00pm 23.3 - - - - S 24 32 13 17 1000.2 1000.1 0.0
23/02:30pm 22.6 - - - - S 32 39 17 21 999.1 999.0 0.0
23/02:00pm 23.2 - - - - SSW 30 41 16 22 998.4 998.3 0.0
23/01:30pm 23.2 - - - - SSW 30 41 16 22 998.4 998.3 0.0
23/01:00pm 22.4 - - - - SSW 32 41 17 22 998.6 998.5 0.0
23/12:30pm 22.6 - - - - SSW 28 41 15 22 998.6 998.5 0.0
23/12:00pm 22.6 - - - - SSW 28 35 15 19 998.7 998.6 0.0
23/11:30am 22.7 - - - - S 20 30 11 16 998.8 998.7 0.0
23/11:00am 23.1 - - - - SSW 20 28 11 15 999.0 998.9 0.0
23/10:30am 22.5 - - - - S 19 24 10 13 999.1 999.0 0.0
23/10:00am 22.6 - - - - SSW 13 20 7 11 999.4 999.3 0.0
23/09:30am 21.9 - - - - SSW 13 17 7 9 999.8 999.7 0.0
23/09:00am 21.9 - - - - SW 7 11 4 6 1000.1 1000.0 0.0
23/08:30am 22.4 - - - - SW 13 19 7 10 1000.2 1000.1 0.0
23/08:00am 20.9 - - - - SW 13 17 7 9 1000.5 1000.4 0.0
23/07:30am 20.7 - - - - WSW 4 9 2 5 1000.3 1000.2 0.0
23/07:00am 19.4 - - - - NW 6 11 3 6 1000.6 1000.5 0.0
23/06:30am 18.9 - - - - W 6 9 3 5 1000.8 1000.7 0.0
23/06:00am 18.6 - - - - W 6 9 3 5 1000.2 1000.1 0.0
23/05:30am 18.4 - - - - W 6 11 3 6 999.9 999.8 0.0
23/05:00am 18.6 - - - - NW 6 7 3 4 999.8 999.7 0.0
23/04:30am 18.7 - - - - W 6 11 3 6 999.7 999.6 0.0
23/04:00am 18.9 - - - - W 9 13 5 7 999.8 999.7 0.0
23/03:30am 18.9 - - - - W 6 9 3 5 1000.1 1000.0 0.0
23/03:00am 18.9 - - - - WNW 2 4 1 2 999.9 999.8 0.0
23/02:30am 19.0 - - - - SSE 2 6 1 3 999.7 999.6 0.0
23/02:00am 19.0 - - - - CALM 0 7 0 4 1000.2 1000.1 0.0
23/01:30am 19.1 - - - - SSW 9 13 5 7 1000.7 1000.6 0.0
23/01:00am 19.1 - - - - SSW 7 11 4 6 1001.2 1001.1 0.0
23/12:30am 19.1 - - - - SSW 9 13 5 7 1002.0 1001.9 0.0
23/12:00am 19.0 - - - - S 7 15 4 8 1002.3 1002.2 0.0
 
Date/Time
WST
Temp
°C
App
Temp
°C
Dew
Point
°C
Rel
Hum
%
Delta-T
°C
Wind Press
QNH
hPa
Press
MSL
hPa
Rain since
9am
mm
Dir  Spd
km/h
Gust
km/h
Spd
kts
Gust
kts
22/11:30pm 18.7 - - - - W 4 6 2 3 1003.9 1003.8 0.0

Other formats

Comma delimited format used in spreadsheet applications
http://www.bom.gov.au/fwo/IDW60801/IDW60801.95635.axf

JavaScript Object Notation format (JSON) in row-major order
http://www.bom.gov.au/fwo/IDW60801/IDW60801.95635.json

Data quality

Most of these data are generated automatically and are frequently updated. Quality checks on data are not normally performed. It is possible for incorrect values to appear. Refer to information at About Latest Weather Observations and please check the disclaimer before using these data.